Soeroeyfisk — LJQQ — position and weather

sailwx.info

Track history (hours):
 
Tides and Currents Weather Stations Pressure Air Temp Water Temp Dewpoint Dewpoint Depression Visibility Wind Speed Wind Dir Waves Ship Positions

Soeroeyfisk

Last reported at 2018-Jun-19 13:22 UTC. Time now 2018-Jun-20 05:18 UTC.
Position N 69°11' E 018°00'.

Length 27 m.

Type: Fishing. MMSI: 259641000.

Date/timePositionNaut miles runAvg speedWind from/ knotsBaromVisibWave heightAir tempDewpointWater temp
2018-Jun-19 13:22N 69°11' E 018°00'3 8.7
2018-Jun-19 13:00N 69°09' E 017°53'4 8.8
2018-Jun-19 12:30N 69°08' E 017°41'4 8.9
2018-Jun-19 12:01N 69°06' E 017°30'4 8.7
2018-Jun-19 11:31N 69°03' E 017°21'5 8.8
2018-Jun-19 10:57N 68°59' E 017°12'18 1.6
2018-Jun-18 23:47N 68°46' E 016°40'3 0.1
2018-Jun-17 11:01N 68°46' E 016°47'2 8.8
2018-Jun-17 10:47N 68°47' E 016°50'3 8.4
2018-Jun-17 10:26N 68°50' E 016°55'7 8.3
2018-Jun-17 09:37N 68°55' E 017°04'1 7.8
2018-Jun-17 09:29N 68°56' E 017°06'4 7.7
2018-Jun-17 08:59N 68°59' E 017°13'4 7.7
2018-Jun-17 08:26N 69°03' E 017°19'3 7.7
2018-Jun-17 08:00N 69°05' E 017°25'4 8.4
2018-Jun-17 07:30N 69°07' E 017°36'4 8.4
2018-Jun-17 07:00N 69°09' E 017°47'5 8.4
2018-Jun-17 06:27N 69°11' E 017°59'  
Track history (hours):
 
Tides and Currents Weather Stations Pressure Air Temp Water Temp Dewpoint Dewpoint Depression Visibility Wind Speed Wind Dir Waves Ship Positions

Soeroeyfisk

Last reported at 2018-Jun-19 13:22 UTC. Time now 2018-Jun-20 05:18 UTC.
Position N 69°11' E 018°00'.

Length 27 m.

Type: Fishing. MMSI: 259641000.

Date/timePositionNaut miles runAvg speedWind from/ knotsBaromVisibWave heightAir tempDewpointWater temp
2018-Jun-19 13:22N 69°11' E 018°00'3 8.7
2018-Jun-19 13:00N 69°09' E 017°53'4 8.8
2018-Jun-19 12:30N 69°08' E 017°41'4 8.9
2018-Jun-19 12:01N 69°06' E 017°30'4 8.7
2018-Jun-19 11:31N 69°03' E 017°21'5 8.8
2018-Jun-19 10:57N 68°59' E 017°12'18 1.6
2018-Jun-18 23:47N 68°46' E 016°40'3 0.1
2018-Jun-17 11:01N 68°46' E 016°47'2 8.8
2018-Jun-17 10:47N 68°47' E 016°50'3 8.4
2018-Jun-17 10:26N 68°50' E 016°55'7 8.3
2018-Jun-17 09:37N 68°55' E 017°04'1 7.8
2018-Jun-17 09:29N 68°56' E 017°06'4 7.7
2018-Jun-17 08:59N 68°59' E 017°13'4 7.7
2018-Jun-17 08:26N 69°03' E 017°19'3 7.7
2018-Jun-17 08:00N 69°05' E 017°25'4 8.4
2018-Jun-17 07:30N 69°07' E 017°36'4 8.4
2018-Jun-17 07:00N 69°09' E 017°47'5 8.4
2018-Jun-17 06:27N 69°11' E 017°59'  

Dump ship's entire track history